sensor_id;sensor_type;location;lat;lon;timestamp;temperature;humidity
65692;DHT22;52411;52.716;6.696;2023-07-02T00:02:16;16.10;99.90
65692;DHT22;52411;52.716;6.696;2023-07-02T00:04:44;16.10;99.90
65692;DHT22;52411;52.716;6.696;2023-07-02T00:07:09;16.00;99.90
65692;DHT22;52411;52.716;6.696;2023-07-02T00:09:35;16.00;99.90
65692;DHT22;52411;52.716;6.696;2023-07-02T00:12:00;15.90;99.90
65692;DHT22;52411;52.716;6.696;2023-07-02T00:14:26;15.90;99.90
65692;DHT22;52411;52.716;6.696;2023-07-02T00:16:51;15.90;99.90
65692;DHT22;52411;52.716;6.696;2023-07-02T00:19:17;15.80;99.90
65692;DHT22;52411;52.716;6.696;2023-07-02T00:21:43;15.80;99.90
65692;DHT22;52411;52.716;6.696;2023-07-02T00:24:09;15.80;99.90
65692;DHT22;52411;52.716;6.696;2023-07-02T00:26:37;15.70;99.90
65692;DHT22;52411;52.716;6.696;2023-07-02T00:29:04;15.70;99.90
65692;DHT22;52411;52.716;6.696;2023-07-02T00:31:31;15.60;99.90
65692;DHT22;52411;52.716;6.696;2023-07-02T00:33:57;15.60;99.90
65692;DHT22;52411;52.716;6.696;2023-07-02T00:36:22;15.60;99.90
65692;DHT22;52411;52.716;6.696;2023-07-02T00:38:49;15.60;99.90
65692;DHT22;52411;52.716;6.696;2023-07-02T00:41:15;15.60;99.90
65692;DHT22;52411;52.716;6.696;2023-07-02T00:43:41;15.60;99.90
65692;DHT22;52411;52.716;6.696;2023-07-02T00:46:14;15.60;99.90
65692;DHT22;52411;52.716;6.696;2023-07-02T00:48:44;15.60;99.90
65692;DHT22;52411;52.716;6.696;2023-07-02T00:51:15;15.60;99.90
65692;DHT22;52411;52.716;6.696;2023-07-02T00:53:42;15.60;99.90
65692;DHT22;52411;52.716;6.696;2023-07-02T00:56:09;15.60;99.90
65692;DHT22;52411;52.716;6.696;2023-07-02T00:58:38;15.60;99.90
65692;DHT22;52411;52.716;6.696;2023-07-02T01:01:04;15.60;99.90
65692;DHT22;52411;52.716;6.696;2023-07-02T01:03:30;15.60;99.90
65692;DHT22;52411;52.716;6.696;2023-07-02T01:05:58;15.60;99.90
65692;DHT22;52411;52.716;6.696;2023-07-02T01:08:24;15.60;99.90
65692;DHT22;52411;52.716;6.696;2023-07-02T01:10:50;15.60;99.90
65692;DHT22;52411;52.716;6.696;2023-07-02T01:13:19;15.60;99.90
65692;DHT22;52411;52.716;6.696;2023-07-02T01:15:46;15.50;99.90
65692;DHT22;52411;52.716;6.696;2023-07-02T01:18:13;15.50;99.90
65692;DHT22;52411;52.716;6.696;2023-07-02T01:20:41;15.50;99.90
65692;DHT22;52411;52.716;6.696;2023-07-02T01:23:07;15.50;99.90
65692;DHT22;52411;52.716;6.696;2023-07-02T01:25:34;15.50;99.90
65692;DHT22;52411;52.716;6.696;2023-07-02T01:28:02;15.30;99.90
65692;DHT22;52411;52.716;6.696;2023-07-02T01:30:28;15.30;99.90
65692;DHT22;52411;52.716;6.696;2023-07-02T01:32:54;15.20;99.90
65692;DHT22;52411;52.716;6.696;2023-07-02T01:35:20;15.10;99.90
65692;DHT22;52411;52.716;6.696;2023-07-02T01:37:45;15.00;99.90
65692;DHT22;52411;52.716;6.696;2023-07-02T01:40:11;15.00;99.90
65692;DHT22;52411;52.716;6.696;2023-07-02T01:42:37;14.90;99.90
65692;DHT22;52411;52.716;6.696;2023-07-02T01:45:03;14.80;99.90
65692;DHT22;52411;52.716;6.696;2023-07-02T01:47:29;14.70;99.90
65692;DHT22;52411;52.716;6.696;2023-07-02T01:49:54;14.70;99.90
65692;DHT22;52411;52.716;6.696;2023-07-02T01:52:20;14.70;99.90
65692;DHT22;52411;52.716;6.696;2023-07-02T01:54:46;14.70;99.90
65692;DHT22;52411;52.716;6.696;2023-07-02T01:57:12;14.60;99.90
65692;DHT22;52411;52.716;6.696;2023-07-02T01:59:37;14.60;99.90
65692;DHT22;52411;52.716;6.696;2023-07-02T02:02:03;14.60;99.90
65692;DHT22;52411;52.716;6.696;2023-07-02T02:04:29;14.50;99.90
65692;DHT22;52411;52.716;6.696;2023-07-02T02:06:55;14.40;99.90
65692;DHT22;52411;52.716;6.696;2023-07-02T02:09:21;14.40;99.90
65692;DHT22;52411;52.716;6.696;2023-07-02T02:11:49;14.30;99.90
65692;DHT22;52411;52.716;6.696;2023-07-02T02:14:14;14.30;99.90
65692;DHT22;52411;52.716;6.696;2023-07-02T02:16:40;14.10;99.90
65692;DHT22;52411;52.716;6.696;2023-07-02T02:19:06;14.10;99.90
65692;DHT22;52411;52.716;6.696;2023-07-02T02:21:32;14.00;99.90
65692;DHT22;52411;52.716;6.696;2023-07-02T02:23:58;14.10;99.90
65692;DHT22;52411;52.716;6.696;2023-07-02T02:26:24;14.00;99.90
65692;DHT22;52411;52.716;6.696;2023-07-02T02:28:50;14.00;99.90
65692;DHT22;52411;52.716;6.696;2023-07-02T02:31:16;13.90;99.90
65692;DHT22;52411;52.716;6.696;2023-07-02T02:33:42;13.90;99.90
65692;DHT22;52411;52.716;6.696;2023-07-02T02:36:08;13.90;99.90
65692;DHT22;52411;52.716;6.696;2023-07-02T02:38:33;13.90;99.90
65692;DHT22;52411;52.716;6.696;2023-07-02T02:40:59;13.80;99.90
65692;DHT22;52411;52.716;6.696;2023-07-02T02:43:26;13.80;99.90
65692;DHT22;52411;52.716;6.696;2023-07-02T02:45:51;13.80;99.90
65692;DHT22;52411;52.716;6.696;2023-07-02T02:48:17;13.80;99.90
65692;DHT22;52411;52.716;6.696;2023-07-02T02:50:42;13.70;99.90
65692;DHT22;52411;52.716;6.696;2023-07-02T02:53:09;13.80;99.90
65692;DHT22;52411;52.716;6.696;2023-07-02T02:55:36;13.70;99.90
65692;DHT22;52411;52.716;6.696;2023-07-02T02:58:01;13.70;99.90
65692;DHT22;52411;52.716;6.696;2023-07-02T03:00:27;13.70;99.90
65692;DHT22;52411;52.716;6.696;2023-07-02T03:02:53;13.70;99.90
65692;DHT22;52411;52.716;6.696;2023-07-02T03:05:18;13.60;99.90
65692;DHT22;52411;52.716;6.696;2023-07-02T03:07:44;13.70;99.90
65692;DHT22;52411;52.716;6.696;2023-07-02T03:10:09;13.60;99.90
65692;DHT22;52411;52.716;6.696;2023-07-02T03:12:35;13.70;99.90
65692;DHT22;52411;52.716;6.696;2023-07-02T03:15:01;13.60;99.90
65692;DHT22;52411;52.716;6.696;2023-07-02T03:17:26;13.60;99.90
65692;DHT22;52411;52.716;6.696;2023-07-02T03:19:52;13.60;99.90
65692;DHT22;52411;52.716;6.696;2023-07-02T03:22:17;13.60;99.90
65692;DHT22;52411;52.716;6.696;2023-07-02T03:24:43;13.70;99.90
65692;DHT22;52411;52.716;6.696;2023-07-02T03:27:09;13.60;99.90
65692;DHT22;52411;52.716;6.696;2023-07-02T03:29:35;13.60;99.90
65692;DHT22;52411;52.716;6.696;2023-07-02T03:32:01;13.50;99.90
65692;DHT22;52411;52.716;6.696;2023-07-02T03:34:27;13.50;99.90
65692;DHT22;52411;52.716;6.696;2023-07-02T03:36:52;13.50;99.90
65692;DHT22;52411;52.716;6.696;2023-07-02T03:39:18;13.50;99.90
65692;DHT22;52411;52.716;6.696;2023-07-02T03:41:44;13.50;99.90
65692;DHT22;52411;52.716;6.696;2023-07-02T03:44:10;13.50;99.90
65692;DHT22;52411;52.716;6.696;2023-07-02T03:46:36;13.50;99.90
65692;DHT22;52411;52.716;6.696;2023-07-02T03:49:02;13.50;99.90
65692;DHT22;52411;52.716;6.696;2023-07-02T03:51:29;13.50;99.90
65692;DHT22;52411;52.716;6.696;2023-07-02T03:53:54;13.50;99.90
65692;DHT22;52411;52.716;6.696;2023-07-02T03:56:20;13.50;99.90
65692;DHT22;52411;52.716;6.696;2023-07-02T03:58:46;13.50;99.90
65692;DHT22;52411;52.716;6.696;2023-07-02T04:01:11;13.50;99.90
65692;DHT22;52411;52.716;6.696;2023-07-02T04:03:37;13.50;99.90
65692;DHT22;52411;52.716;6.696;2023-07-02T04:06:03;13.50;99.90
65692;DHT22;52411;52.716;6.696;2023-07-02T04:08:31;13.50;99.90
65692;DHT22;52411;52.716;6.696;2023-07-02T04:10:57;13.50;99.90
65692;DHT22;52411;52.716;6.696;2023-07-02T04:13:22;13.60;99.90
65692;DHT22;52411;52.716;6.696;2023-07-02T04:15:48;13.60;99.90
65692;DHT22;52411;52.716;6.696;2023-07-02T04:18:14;13.60;99.90
65692;DHT22;52411;52.716;6.696;2023-07-02T04:20:39;13.60;99.90
65692;DHT22;52411;52.716;6.696;2023-07-02T04:23:05;13.70;99.90
65692;DHT22;52411;52.716;6.696;2023-07-02T04:25:31;13.70;99.90
65692;DHT22;52411;52.716;6.696;2023-07-02T04:27:57;13.70;99.90
65692;DHT22;52411;52.716;6.696;2023-07-02T04:30:24;13.70;99.90
65692;DHT22;52411;52.716;6.696;2023-07-02T04:32:51;13.80;99.90
65692;DHT22;52411;52.716;6.696;2023-07-02T04:35:16;13.80;99.90
65692;DHT22;52411;52.716;6.696;2023-07-02T04:37:42;13.90;99.90
65692;DHT22;52411;52.716;6.696;2023-07-02T04:40:08;13.90;99.90
65692;DHT22;52411;52.716;6.696;2023-07-02T04:42:40;13.90;99.90
65692;DHT22;52411;52.716;6.696;2023-07-02T04:45:07;14.00;99.90
65692;DHT22;52411;52.716;6.696;2023-07-02T04:47:34;14.00;99.90
65692;DHT22;52411;52.716;6.696;2023-07-02T04:50:00;14.00;99.90
65692;DHT22;52411;52.716;6.696;2023-07-02T04:52:26;14.10;99.90
65692;DHT22;52411;52.716;6.696;2023-07-02T04:54:52;14.10;99.90
65692;DHT22;52411;52.716;6.696;2023-07-02T04:57:17;14.20;99.90
65692;DHT22;52411;52.716;6.696;2023-07-02T04:59:43;14.20;99.90
65692;DHT22;52411;52.716;6.696;2023-07-02T05:02:09;14.20;99.90
65692;DHT22;52411;52.716;6.696;2023-07-02T05:04:35;14.30;99.90
65692;DHT22;52411;52.716;6.696;2023-07-02T05:07:03;14.40;99.90
65692;DHT22;52411;52.716;6.696;2023-07-02T05:09:28;14.40;99.90
65692;DHT22;52411;52.716;6.696;2023-07-02T05:11:54;14.40;99.90
65692;DHT22;52411;52.716;6.696;2023-07-02T05:14:20;14.50;99.90
65692;DHT22;52411;52.716;6.696;2023-07-02T05:16:45;14.60;99.90
65692;DHT22;52411;52.716;6.696;2023-07-02T05:19:11;14.60;99.90
65692;DHT22;52411;52.716;6.696;2023-07-02T05:21:36;14.70;99.90
65692;DHT22;52411;52.716;6.696;2023-07-02T05:24:02;14.80;99.90
65692;DHT22;52411;52.716;6.696;2023-07-02T05:26:28;15.00;99.90
65692;DHT22;52411;52.716;6.696;2023-07-02T05:28:53;15.10;99.90
65692;DHT22;52411;52.716;6.696;2023-07-02T05:31:19;15.10;99.90
65692;DHT22;52411;52.716;6.696;2023-07-02T05:33:45;15.20;99.90
65692;DHT22;52411;52.716;6.696;2023-07-02T05:36:10;15.20;99.90
65692;DHT22;52411;52.716;6.696;2023-07-02T05:38:36;15.10;99.90
65692;DHT22;52411;52.716;6.696;2023-07-02T05:41:02;15.10;99.90
65692;DHT22;52411;52.716;6.696;2023-07-02T05:43:29;15.10;99.90
65692;DHT22;52411;52.716;6.696;2023-07-02T05:45:57;15.20;99.90
65692;DHT22;52411;52.716;6.696;2023-07-02T05:48:23;15.30;99.90
65692;DHT22;52411;52.716;6.696;2023-07-02T05:50:49;15.30;99.90
65692;DHT22;52411;52.716;6.696;2023-07-02T05:53:14;15.50;99.90
65692;DHT22;52411;52.716;6.696;2023-07-02T05:55:41;15.60;99.90
65692;DHT22;52411;52.716;6.696;2023-07-02T05:58:07;15.70;99.90
65692;DHT22;52411;52.716;6.696;2023-07-02T06:00:32;15.70;99.90
65692;DHT22;52411;52.716;6.696;2023-07-02T06:02:58;15.80;99.90
65692;DHT22;52411;52.716;6.696;2023-07-02T06:05:24;15.90;99.90
65692;DHT22;52411;52.716;6.696;2023-07-02T06:07:49;16.00;99.90
65692;DHT22;52411;52.716;6.696;2023-07-02T06:10:15;16.00;99.90
65692;DHT22;52411;52.716;6.696;2023-07-02T06:12:42;16.20;99.90
65692;DHT22;52411;52.716;6.696;2023-07-02T06:15:09;16.30;99.90
65692;DHT22;52411;52.716;6.696;2023-07-02T06:17:34;16.40;99.90
65692;DHT22;52411;52.716;6.696;2023-07-02T06:20:02;16.40;99.90
65692;DHT22;52411;52.716;6.696;2023-07-02T06:22:30;16.40;99.90
65692;DHT22;52411;52.716;6.696;2023-07-02T06:24:56;16.40;99.90
65692;DHT22;52411;52.716;6.696;2023-07-02T06:27:22;16.50;99.90
65692;DHT22;52411;52.716;6.696;2023-07-02T06:29:47;16.50;99.90
65692;DHT22;52411;52.716;6.696;2023-07-02T06:32:13;16.70;99.90
65692;DHT22;52411;52.716;6.696;2023-07-02T06:34:39;16.70;99.90
65692;DHT22;52411;52.716;6.696;2023-07-02T06:37:05;16.80;99.90
65692;DHT22;52411;52.716;6.696;2023-07-02T06:39:30;16.90;99.90
65692;DHT22;52411;52.716;6.696;2023-07-02T06:41:56;16.90;99.90
65692;DHT22;52411;52.716;6.696;2023-07-02T06:44:22;17.00;99.90
65692;DHT22;52411;52.716;6.696;2023-07-02T06:46:48;17.10;99.90
65692;DHT22;52411;52.716;6.696;2023-07-02T06:49:13;17.10;99.90
65692;DHT22;52411;52.716;6.696;2023-07-02T06:51:39;17.10;99.90
65692;DHT22;52411;52.716;6.696;2023-07-02T06:54:05;17.00;99.90
65692;DHT22;52411;52.716;6.696;2023-07-02T06:56:31;16.90;99.90
65692;DHT22;52411;52.716;6.696;2023-07-02T06:58:58;17.10;99.90
65692;DHT22;52411;52.716;6.696;2023-07-02T07:01:23;17.20;99.90
65692;DHT22;52411;52.716;6.696;2023-07-02T07:03:49;17.30;99.90
65692;DHT22;52411;52.716;6.696;2023-07-02T07:06:15;17.50;99.90
65692;DHT22;52411;52.716;6.696;2023-07-02T07:08:40;17.50;99.90
65692;DHT22;52411;52.716;6.696;2023-07-02T07:11:06;17.50;99.90
65692;DHT22;52411;52.716;6.696;2023-07-02T07:13:32;17.50;99.90
65692;DHT22;52411;52.716;6.696;2023-07-02T07:15:58;17.60;99.90
65692;DHT22;52411;52.716;6.696;2023-07-02T07:18:23;17.80;99.90
65692;DHT22;52411;52.716;6.696;2023-07-02T07:20:49;17.80;99.90
65692;DHT22;52411;52.716;6.696;2023-07-02T07:23:16;17.70;99.90
65692;DHT22;52411;52.716;6.696;2023-07-02T07:25:42;17.50;99.90
65692;DHT22;52411;52.716;6.696;2023-07-02T07:28:08;17.40;99.90
65692;DHT22;52411;52.716;6.696;2023-07-02T07:30:37;17.50;99.90
65692;DHT22;52411;52.716;6.696;2023-07-02T07:33:03;17.70;99.90
65692;DHT22;52411;52.716;6.696;2023-07-02T07:35:28;17.70;99.90
65692;DHT22;52411;52.716;6.696;2023-07-02T07:37:54;17.60;99.90
65692;DHT22;52411;52.716;6.696;2023-07-02T07:40:19;17.50;99.90
65692;DHT22;52411;52.716;6.696;2023-07-02T07:42:45;17.40;99.90
65692;DHT22;52411;52.716;6.696;2023-07-02T07:45:11;17.30;99.90
65692;DHT22;52411;52.716;6.696;2023-07-02T07:47:37;17.20;99.90
65692;DHT22;52411;52.716;6.696;2023-07-02T07:50:03;17.10;99.90
65692;DHT22;52411;52.716;6.696;2023-07-02T07:52:34;16.90;99.90
65692;DHT22;52411;52.716;6.696;2023-07-02T07:55:00;16.90;99.90
65692;DHT22;52411;52.716;6.696;2023-07-02T07:57:25;17.10;99.90
65692;DHT22;52411;52.716;6.696;2023-07-02T07:59:51;17.10;99.90
65692;DHT22;52411;52.716;6.696;2023-07-02T08:02:16;17.10;99.90
65692;DHT22;52411;52.716;6.696;2023-07-02T08:04:42;17.10;99.90
65692;DHT22;52411;52.716;6.696;2023-07-02T08:07:07;17.10;99.90
65692;DHT22;52411;52.716;6.696;2023-07-02T08:09:34;17.20;99.90
65692;DHT22;52411;52.716;6.696;2023-07-02T08:12:00;17.40;99.90
65692;DHT22;52411;52.716;6.696;2023-07-02T08:14:26;17.60;99.90
65692;DHT22;52411;52.716;6.696;2023-07-02T08:16:51;17.70;99.90
65692;DHT22;52411;52.716;6.696;2023-07-02T08:19:17;17.80;99.90
65692;DHT22;52411;52.716;6.696;2023-07-02T08:21:42;17.90;99.90
65692;DHT22;52411;52.716;6.696;2023-07-02T08:24:08;18.20;99.90
65692;DHT22;52411;52.716;6.696;2023-07-02T08:26:34;18.30;99.90
65692;DHT22;52411;52.716;6.696;2023-07-02T08:28:59;18.50;99.90
65692;DHT22;52411;52.716;6.696;2023-07-02T08:31:25;18.80;99.90
65692;DHT22;52411;52.716;6.696;2023-07-02T08:33:50;18.80;99.90
65692;DHT22;52411;52.716;6.696;2023-07-02T08:36:16;18.80;99.90
65692;DHT22;52411;52.716;6.696;2023-07-02T08:38:42;18.60;99.90
65692;DHT22;52411;52.716;6.696;2023-07-02T08:41:08;18.60;99.90
65692;DHT22;52411;52.716;6.696;2023-07-02T08:43:35;18.40;99.70
65692;DHT22;52411;52.716;6.696;2023-07-02T08:46:01;18.20;99.40
65692;DHT22;52411;52.716;6.696;2023-07-02T08:48:28;18.20;99.30
65692;DHT22;52411;52.716;6.696;2023-07-02T08:50:55;18.20;98.60
65692;DHT22;52411;52.716;6.696;2023-07-02T08:53:20;18.40;99.10
65692;DHT22;52411;52.716;6.696;2023-07-02T08:55:50;18.40;98.80
65692;DHT22;52411;52.716;6.696;2023-07-02T08:58:16;18.40;99.30
65692;DHT22;52411;52.716;6.696;2023-07-02T09:01:08;18.40;99.60
65692;DHT22;52411;52.716;6.696;2023-07-02T09:03:34;18.40;97.50
65692;DHT22;52411;52.716;6.696;2023-07-02T09:06:03;18.20;97.90
65692;DHT22;52411;52.716;6.696;2023-07-02T09:08:29;18.20;96.90
65692;DHT22;52411;52.716;6.696;2023-07-02T09:11:12;18.10;97.60
65692;DHT22;52411;52.716;6.696;2023-07-02T09:13:48;18.10;97.20
65692;DHT22;52411;52.716;6.696;2023-07-02T09:19:13;18.30;98.50
65692;DHT22;52411;52.716;6.696;2023-07-02T09:21:41;18.70;98.70
65692;DHT22;52411;52.716;6.696;2023-07-02T09:24:20;19.20;99.10
65692;DHT22;52411;52.716;6.696;2023-07-02T09:26:50;18.90;97.30
65692;DHT22;52411;52.716;6.696;2023-07-02T09:29:23;18.60;98.40
65692;DHT22;52411;52.716;6.696;2023-07-02T09:31:50;18.40;99.60
65692;DHT22;52411;52.716;6.696;2023-07-02T09:34:16;18.40;99.70
65692;DHT22;52411;52.716;6.696;2023-07-02T09:36:43;18.50;99.30
65692;DHT22;52411;52.716;6.696;2023-07-02T09:39:13;18.70;99.90
65692;DHT22;52411;52.716;6.696;2023-07-02T09:41:42;18.80;99.90
65692;DHT22;52411;52.716;6.696;2023-07-02T09:44:12;18.70;99.90
65692;DHT22;52411;52.716;6.696;2023-07-02T09:46:42;18.40;99.90
65692;DHT22;52411;52.716;6.696;2023-07-02T09:49:14;18.20;99.90
65692;DHT22;52411;52.716;6.696;2023-07-02T09:51:42;18.30;99.90
65692;DHT22;52411;52.716;6.696;2023-07-02T09:54:09;18.40;99.90
65692;DHT22;52411;52.716;6.696;2023-07-02T09:56:35;18.60;99.90
65692;DHT22;52411;52.716;6.696;2023-07-02T09:59:01;18.80;99.90
65692;DHT22;52411;52.716;6.696;2023-07-02T10:01:26;18.90;99.90
65692;DHT22;52411;52.716;6.696;2023-07-02T10:03:52;18.90;99.90
65692;DHT22;52411;52.716;6.696;2023-07-02T10:06:17;19.00;99.60
65692;DHT22;52411;52.716;6.696;2023-07-02T10:08:54;18.80;98.70
65692;DHT22;52411;52.716;6.696;2023-07-02T10:11:19;18.70;99.10
65692;DHT22;52411;52.716;6.696;2023-07-02T10:13:45;18.80;99.70
65692;DHT22;52411;52.716;6.696;2023-07-02T10:16:11;18.80;99.90
65692;DHT22;52411;52.716;6.696;2023-07-02T10:18:36;18.70;99.90
65692;DHT22;52411;52.716;6.696;2023-07-02T10:21:16;18.40;99.90
65692;DHT22;52411;52.716;6.696;2023-07-02T10:23:42;18.20;99.60
65692;DHT22;52411;52.716;6.696;2023-07-02T10:26:19;18.00;99.80
65692;DHT22;52411;52.716;6.696;2023-07-02T10:28:58;17.80;99.90
65692;DHT22;52411;52.716;6.696;2023-07-02T10:31:24;17.60;99.90
65692;DHT22;52411;52.716;6.696;2023-07-02T10:33:49;17.60;99.90
65692;DHT22;52411;52.716;6.696;2023-07-02T10:36:20;17.70;99.90
65692;DHT22;52411;52.716;6.696;2023-07-02T10:38:46;17.90;99.90
65692;DHT22;52411;52.716;6.696;2023-07-02T10:41:22;18.00;99.90
65692;DHT22;52411;52.716;6.696;2023-07-02T10:43:47;18.10;99.90
65692;DHT22;52411;52.716;6.696;2023-07-02T10:46:19;18.10;99.90
65692;DHT22;52411;52.716;6.696;2023-07-02T10:48:52;18.30;99.90
65692;DHT22;52411;52.716;6.696;2023-07-02T10:51:18;18.50;99.90
65692;DHT22;52411;52.716;6.696;2023-07-02T10:53:43;18.80;99.90
65692;DHT22;52411;52.716;6.696;2023-07-02T10:56:16;19.20;99.80
65692;DHT22;52411;52.716;6.696;2023-07-02T10:58:42;19.40;99.00
65692;DHT22;52411;52.716;6.696;2023-07-02T11:01:09;19.30;99.20
65692;DHT22;52411;52.716;6.696;2023-07-02T11:03:34;19.40;99.90
65692;DHT22;52411;52.716;6.696;2023-07-02T11:06:00;19.60;99.90
65692;DHT22;52411;52.716;6.696;2023-07-02T11:08:35;19.70;99.90
65692;DHT22;52411;52.716;6.696;2023-07-02T11:11:18;19.70;99.50
65692;DHT22;52411;52.716;6.696;2023-07-02T11:13:48;19.80;99.30
65692;DHT22;52411;52.716;6.696;2023-07-02T11:16:35;19.60;97.80
65692;DHT22;52411;52.716;6.696;2023-07-02T11:19:08;19.10;94.40
65692;DHT22;52411;52.716;6.696;2023-07-02T11:21:34;19.20;95.70
65692;DHT22;52411;52.716;6.696;2023-07-02T11:24:04;19.30;96.40
65692;DHT22;52411;52.716;6.696;2023-07-02T11:26:40;19.90;96.60
65692;DHT22;52411;52.716;6.696;2023-07-02T11:29:12;20.10;95.80
65692;DHT22;52411;52.716;6.696;2023-07-02T11:31:43;20.10;95.00
65692;DHT22;52411;52.716;6.696;2023-07-02T11:36:38;19.70;95.80
65692;DHT22;52411;52.716;6.696;2023-07-02T11:39:04;19.50;95.10
65692;DHT22;52411;52.716;6.696;2023-07-02T11:41:44;19.30;94.60
65692;DHT22;52411;52.716;6.696;2023-07-02T11:44:10;19.30;94.50
65692;DHT22;52411;52.716;6.696;2023-07-02T11:46:35;19.40;94.70
65692;DHT22;52411;52.716;6.696;2023-07-02T11:49:02;19.70;94.30
65692;DHT22;52411;52.716;6.696;2023-07-02T11:51:30;19.80;93.40
65692;DHT22;52411;52.716;6.696;2023-07-02T11:53:57;20.30;94.00
65692;DHT22;52411;52.716;6.696;2023-07-02T11:56:23;21.00;93.70
65692;DHT22;52411;52.716;6.696;2023-07-02T11:58:49;21.20;92.70
65692;DHT22;52411;52.716;6.696;2023-07-02T12:01:14;21.10;91.90
65692;DHT22;52411;52.716;6.696;2023-07-02T12:03:40;20.50;92.40
65692;DHT22;52411;52.716;6.696;2023-07-02T12:06:05;20.20;92.40
65692;DHT22;52411;52.716;6.696;2023-07-02T12:08:31;20.00;92.70
65692;DHT22;52411;52.716;6.696;2023-07-02T12:10:56;19.90;91.60
65692;DHT22;52411;52.716;6.696;2023-07-02T12:13:22;19.80;91.70
65692;DHT22;52411;52.716;6.696;2023-07-02T12:15:48;19.70;92.00
65692;DHT22;52411;52.716;6.696;2023-07-02T12:18:15;19.80;91.10
65692;DHT22;52411;52.716;6.696;2023-07-02T12:20:40;19.70;90.90
65692;DHT22;52411;52.716;6.696;2023-07-02T12:23:06;19.70;91.10
65692;DHT22;52411;52.716;6.696;2023-07-02T12:25:32;19.70;91.10
65692;DHT22;52411;52.716;6.696;2023-07-02T12:27:58;19.70;90.60
65692;DHT22;52411;52.716;6.696;2023-07-02T12:30:24;19.70;90.70
65692;DHT22;52411;52.716;6.696;2023-07-02T12:32:50;19.50;90.90
65692;DHT22;52411;52.716;6.696;2023-07-02T12:35:15;19.50;91.20
65692;DHT22;52411;52.716;6.696;2023-07-02T12:37:49;19.40;90.90
65692;DHT22;52411;52.716;6.696;2023-07-02T12:40:15;19.30;90.40
65692;DHT22;52411;52.716;6.696;2023-07-02T12:42:42;19.30;91.00
65692;DHT22;52411;52.716;6.696;2023-07-02T12:45:09;19.40;90.70
65692;DHT22;52411;52.716;6.696;2023-07-02T12:47:35;19.40;90.90
65692;DHT22;52411;52.716;6.696;2023-07-02T12:50:01;19.80;91.00
65692;DHT22;52411;52.716;6.696;2023-07-02T12:52:28;20.20;90.20
65692;DHT22;52411;52.716;6.696;2023-07-02T12:54:54;20.20;88.80
65692;DHT22;52411;52.716;6.696;2023-07-02T12:57:19;20.10;90.20
65692;DHT22;52411;52.716;6.696;2023-07-02T12:59:45;20.00;90.20
65692;DHT22;52411;52.716;6.696;2023-07-02T13:02:11;19.90;89.00
65692;DHT22;52411;52.716;6.696;2023-07-02T13:04:37;20.20;86.70
65692;DHT22;52411;52.716;6.696;2023-07-02T13:07:03;20.40;85.10
65692;DHT22;52411;52.716;6.696;2023-07-02T13:09:29;20.00;82.70
65692;DHT22;52411;52.716;6.696;2023-07-02T13:11:54;19.70;83.40
65692;DHT22;52411;52.716;6.696;2023-07-02T13:14:20;19.50;84.80
65692;DHT22;52411;52.716;6.696;2023-07-02T13:16:45;19.50;86.30
65692;DHT22;52411;52.716;6.696;2023-07-02T13:19:11;19.90;88.30
65692;DHT22;52411;52.716;6.696;2023-07-02T13:21:37;19.80;87.20
65692;DHT22;52411;52.716;6.696;2023-07-02T13:24:03;20.10;87.90
65692;DHT22;52411;52.716;6.696;2023-07-02T13:26:28;19.90;87.20
65692;DHT22;52411;52.716;6.696;2023-07-02T13:28:54;19.70;87.60
65692;DHT22;52411;52.716;6.696;2023-07-02T13:31:19;19.60;87.80
65692;DHT22;52411;52.716;6.696;2023-07-02T13:33:45;19.50;86.20
65692;DHT22;52411;52.716;6.696;2023-07-02T13:36:15;19.90;86.50
65692;DHT22;52411;52.716;6.696;2023-07-02T13:38:40;20.70;81.80
65692;DHT22;52411;52.716;6.696;2023-07-02T13:41:06;21.10;79.60
65692;DHT22;52411;52.716;6.696;2023-07-02T13:43:31;21.20;73.60
65692;DHT22;52411;52.716;6.696;2023-07-02T13:45:57;21.40;74.50
65692;DHT22;52411;52.716;6.696;2023-07-02T13:48:23;21.20;73.10
65692;DHT22;52411;52.716;6.696;2023-07-02T13:50:48;21.00;73.00
65692;DHT22;52411;52.716;6.696;2023-07-02T13:53:14;21.20;71.20
65692;DHT22;52411;52.716;6.696;2023-07-02T13:55:40;21.30;71.10
65692;DHT22;52411;52.716;6.696;2023-07-02T13:58:05;21.20;71.30
65692;DHT22;52411;52.716;6.696;2023-07-02T14:00:31;20.90;72.20
65692;DHT22;52411;52.716;6.696;2023-07-02T14:02:56;20.90;71.90
65692;DHT22;52411;52.716;6.696;2023-07-02T14:05:22;20.80;72.30
65692;DHT22;52411;52.716;6.696;2023-07-02T14:07:48;20.60;72.30
65692;DHT22;52411;52.716;6.696;2023-07-02T14:10:14;20.30;73.20
65692;DHT22;52411;52.716;6.696;2023-07-02T14:12:40;20.10;73.90
65692;DHT22;52411;52.716;6.696;2023-07-02T14:15:07;19.90;74.80
65692;DHT22;52411;52.716;6.696;2023-07-02T14:17:33;19.80;76.20
65692;DHT22;52411;52.716;6.696;2023-07-02T14:19:58;19.60;76.60
65692;DHT22;52411;52.716;6.696;2023-07-02T14:22:24;19.50;76.80
65692;DHT22;52411;52.716;6.696;2023-07-02T14:24:50;19.40;77.80
65692;DHT22;52411;52.716;6.696;2023-07-02T14:27:15;19.70;78.70
65692;DHT22;52411;52.716;6.696;2023-07-02T14:29:41;19.80;78.70
65692;DHT22;52411;52.716;6.696;2023-07-02T14:32:07;19.70;78.60
65692;DHT22;52411;52.716;6.696;2023-07-02T14:34:33;19.70;79.20
65692;DHT22;52411;52.716;6.696;2023-07-02T14:36:59;20.20;79.20
65692;DHT22;52411;52.716;6.696;2023-07-02T14:39:25;20.60;78.20
65692;DHT22;52411;52.716;6.696;2023-07-02T14:41:50;20.30;78.00
65692;DHT22;52411;52.716;6.696;2023-07-02T14:44:16;20.00;78.70
65692;DHT22;52411;52.716;6.696;2023-07-02T14:46:43;20.00;80.10
65692;DHT22;52411;52.716;6.696;2023-07-02T14:49:09;20.40;78.40
65692;DHT22;52411;52.716;6.696;2023-07-02T14:51:34;20.30;77.30
65692;DHT22;52411;52.716;6.696;2023-07-02T14:54:01;19.90;76.30
65692;DHT22;52411;52.716;6.696;2023-07-02T14:56:29;20.10;77.60
65692;DHT22;52411;52.716;6.696;2023-07-02T14:58:56;20.30;75.70
65692;DHT22;52411;52.716;6.696;2023-07-02T15:01:21;20.20;75.20
65692;DHT22;52411;52.716;6.696;2023-07-02T15:03:47;19.90;76.30
65692;DHT22;52411;52.716;6.696;2023-07-02T15:06:16;20.00;77.90
65692;DHT22;52411;52.716;6.696;2023-07-02T15:08:42;20.40;77.80
65692;DHT22;52411;52.716;6.696;2023-07-02T15:11:08;21.20;76.90
65692;DHT22;52411;52.716;6.696;2023-07-02T15:13:34;21.90;74.40
65692;DHT22;52411;52.716;6.696;2023-07-02T15:16:00;21.60;73.90
65692;DHT22;52411;52.716;6.696;2023-07-02T15:18:26;21.20;72.50
65692;DHT22;52411;52.716;6.696;2023-07-02T15:20:53;20.60;73.00
65692;DHT22;52411;52.716;6.696;2023-07-02T15:23:19;20.10;73.10
65692;DHT22;52411;52.716;6.696;2023-07-02T15:25:56;19.80;75.10
65692;DHT22;52411;52.716;6.696;2023-07-02T15:28:22;19.70;75.10
65692;DHT22;52411;52.716;6.696;2023-07-02T15:31:03;19.70;76.00
65692;DHT22;52411;52.716;6.696;2023-07-02T15:33:28;19.60;74.70